Time;durP1;ratioP1;P1;durP2;ratioP2;P2;SDS_P1;SDS_P2;PMS_P1;PMS_P2;Temp;Humidity;BMP_temperature;BMP_pressure;BME280_temperature;BME280_humidity;BME280_pressure;Samples;Min_cycle;Max_cycle;Signal;HPM_P1;HPM_P2
2023/07/10 00:01:02;;;;;;;;;;;;;;;19.07;100.00;101959.03;5000363;28;19925;-74
2023/07/10 00:03:30;;;;;;;;;;;;;;;19.14;100.00;101964.75;4991575;28;20387;-74
2023/07/10 00:05:56;;;;;;;;;;;;;;;19.11;100.00;101956.88;5006535;28;19987;-75
2023/07/10 00:08:21;;;;;;;;;;;;;;;19.09;100.00;101958.88;5008365;28;20367;-74
2023/07/10 00:10:46;;;;;;;;;;;;;;;19.14;100.00;101960.16;5008511;28;19928;-74
2023/07/10 00:13:12;;;;;;;;;;;;;;;19.09;100.00;101959.75;4996338;28;19921;-74
2023/07/10 00:15:37;;;;;;;;;;;;;;;19.09;100.00;101957.03;4981969;28;19932;-74
2023/07/10 00:18:04;;;;;;;;;;;;;;;19.00;100.00;101957.91;4994752;28;20346;-74
2023/07/10 00:20:29;;;;;;;;;;;;;;;18.98;100.00;101952.63;4992420;28;20383;-74
2023/07/10 00:22:54;;;;;;;;;;;;;;;19.00;100.00;101957.91;5014722;28;20343;-74
2023/07/10 00:25:19;;;;;;;;;;;;;;;18.95;100.00;101961.09;4979187;28;20015;-74
2023/07/10 00:27:45;;;;;;;;;;;;;;;18.93;100.00;101973.09;4996891;28;19940;-73
2023/07/10 00:30:15;;;;;;;;;;;;;;;18.96;100.00;101978.25;4998119;28;19925;-74
2023/07/10 00:32:41;;;;;;;;;;;;;;;18.93;100.00;101973.09;4994605;28;19925;-73
2023/07/10 00:35:06;;;;;;;;;;;;;;;18.98;100.00;101966.22;4991353;28;19932;-74
2023/07/10 00:37:31;;;;;;;;;;;;;;;18.98;100.00;101960.78;4991591;28;20070;-74
2023/07/10 00:39:57;;;;;;;;;;;;;;;18.98;100.00;101955.34;5011284;28;20420;-74
2023/07/10 00:42:22;;;;;;;;;;;;;;;18.93;100.00;101945.88;4983568;28;19935;-74
2023/07/10 00:44:51;;;;;;;;;;;;;;;18.94;100.00;101953.91;4974289;28;20008;-74
2023/07/10 00:47:23;;;;;;;;;;;;;;;18.93;100.00;101957.63;4974594;28;19921;-74
2023/07/10 00:49:50;;;;;;;;;;;;;;;18.93;100.00;101951.34;5005978;28;19932;-74
2023/07/10 00:52:24;;;;;;;;;;;;;;;18.94;100.00;101953.03;4992435;28;19933;-74
2023/07/10 00:54:51;;;;;;;;;;;;;;;18.94;100.00;101951.16;4991379;28;19932;-75
2023/07/10 00:57:21;;;;;;;;;;;;;;;18.84;100.00;101959.38;4993021;28;20356;-75
2023/07/10 00:59:46;;;;;;;;;;;;;;;18.80;100.00;101968.81;4971195;28;19957;-74
2023/07/10 01:02:11;;;;;;;;;;;;;;;18.76;100.00;101970.13;4996906;28;19925;-75
2023/07/10 01:04:39;;;;;;;;;;;;;;;18.62;100.00;101970.56;4995889;28;20024;-74
2023/07/10 01:07:04;;;;;;;;;;;;;;;18.53;100.00;101961.44;4978867;28;19948;-74
2023/07/10 01:09:30;;;;;;;;;;;;;;;18.40;100.00;101970.72;4979165;28;19951;-75
2023/07/10 01:11:55;;;;;;;;;;;;;;;18.29;100.00;101977.16;4988761;28;19964;-77
2023/07/10 01:14:20;;;;;;;;;;;;;;;18.35;100.00;101980.31;4997432;28;20071;-74
2023/07/10 01:16:45;;;;;;;;;;;;;;;18.21;100.00;101977.00;4991987;28;19944;-75
2023/07/10 01:19:14;;;;;;;;;;;;;;;18.26;100.00;101982.88;4995449;28;20004;-75
2023/07/10 01:21:39;;;;;;;;;;;;;;;18.21;100.00;101982.44;4995183;28;20011;-74
2023/07/10 01:24:05;;;;;;;;;;;;;;;18.17;100.00;101982.88;4997275;28;20252;-75
2023/07/10 01:26:30;;;;;;;;;;;;;;;18.17;100.00;101974.72;4994068;28;20366;-75
2023/07/10 01:28:56;;;;;;;;;;;;;;;18.16;100.00;101973.03;4997337;28;19926;-75
2023/07/10 01:31:21;;;;;;;;;;;;;;;18.14;100.00;101973.16;4981770;28;20279;-75
2023/07/10 01:33:48;;;;;;;;;;;;;;;18.11;100.00;101976.16;4995408;28;19921;-74
2023/07/10 01:36:14;;;;;;;;;;;;;;;18.08;100.00;101987.31;4981017;28;19925;-75
2023/07/10 01:38:43;;;;;;;;;;;;;;;18.06;100.00;101979.28;4998774;28;20346;-75
2023/07/10 01:41:12;;;;;;;;;;;;;;;17.96;100.00;101979.25;4996463;28;19925;-75
2023/07/10 01:43:37;;;;;;;;;;;;;;;17.92;100.00;101993.25;4990661;28;19928;-75
2023/07/10 01:46:14;;;;;;;;;;;;;;;17.93;100.00;101981.41;4998451;28;19925;-75
2023/07/10 01:48:39;;;;;;;;;;;;;;;17.88;100.00;101981.78;4997916;28;19932;-75
2023/07/10 01:51:05;;;;;;;;;;;;;;;17.94;100.00;101983.13;4978165;28;19921;-74
2023/07/10 01:53:30;;;;;;;;;;;;;;;18.01;100.00;101978.00;4996382;28;19925;-75
2023/07/10 01:55:55;;;;;;;;;;;;;;;18.04;100.00;101975.84;4982052;28;19975;-75
2023/07/10 01:58:20;;;;;;;;;;;;;;;18.04;100.00;101959.56;5000813;28;19925;-75
2023/07/10 02:00:45;;;;;;;;;;;;;;;18.05;100.00;101961.25;4998390;28;19980;-75
2023/07/10 02:03:11;;;;;;;;;;;;;;;17.97;100.00;101966.53;4977439;28;19960;-75
2023/07/10 02:05:36;;;;;;;;;;;;;;;17.92;100.00;101976.97;4970974;28;20421;-75
2023/07/10 02:08:01;;;;;;;;;;;;;;;17.94;100.00;101978.53;4992368;28;19932;-75
2023/07/10 02:10:27;;;;;;;;;;;;;;;17.90;100.00;101982.53;4991019;28;19921;-75
2023/07/10 02:12:52;;;;;;;;;;;;;;;17.89;100.00;101977.25;4997196;28;19929;-75
2023/07/10 02:15:17;;;;;;;;;;;;;;;17.82;100.00;101975.06;4998779;28;20027;-75
2023/07/10 02:17:43;;;;;;;;;;;;;;;17.78;100.00;101970.91;4990198;28;19925;-75
2023/07/10 02:20:08;;;;;;;;;;;;;;;17.74;100.00;101974.06;4991980;28;19929;-75
2023/07/10 02:22:33;;;;;;;;;;;;;;;17.71;100.00;101985.19;4993297;28;19927;-75
2023/07/10 02:24:59;;;;;;;;;;;;;;;17.61;100.00;101980.59;4992999;28;19932;-75
2023/07/10 02:27:24;;;;;;;;;;;;;;;17.58;100.00;101986.31;4992993;28;19921;-75
2023/07/10 02:29:49;;;;;;;;;;;;;;;17.55;100.00;101975.72;4991938;28;19932;-74
2023/07/10 02:32:14;;;;;;;;;;;;;;;17.51;100.00;101986.00;4988246;28;20743;-75
2023/07/10 02:34:39;;;;;;;;;;;;;;;17.41;100.00;101997.81;5011152;28;20662;-75
2023/07/10 02:37:05;;;;;;;;;;;;;;;17.32;100.00;101996.78;4998958;28;19921;-75
2023/07/10 02:39:30;;;;;;;;;;;;;;;17.33;100.00;101995.78;4995698;28;19921;-74
2023/07/10 02:41:55;;;;;;;;;;;;;;;17.33;100.00;102004.78;5011869;28;19925;-74
2023/07/10 02:44:20;;;;;;;;;;;;;;;17.38;100.00;101996.25;5016021;28;19987;-75
2023/07/10 02:46:46;;;;;;;;;;;;;;;17.38;100.00;101996.25;5014936;28;19960;-75
2023/07/10 02:49:11;;;;;;;;;;;;;;;17.36;100.00;101990.94;5012079;28;19921;-75
2023/07/10 02:51:36;;;;;;;;;;;;;;;17.34;100.00;101995.66;4992861;28;20012;-75
2023/07/10 02:54:11;;;;;;;;;;;;;;;17.29;100.00;101994.31;4985301;28;19975;-75
2023/07/10 02:56:36;;;;;;;;;;;;;;;17.13;100.00;101989.38;4997711;28;19972;-75
2023/07/10 02:59:02;;;;;;;;;;;;;;;17.08;100.00;101998.78;4999898;28;20020;-75
2023/07/10 03:01:27;;;;;;;;;;;;;;;17.06;100.00;102003.50;4985607;28;19959;-75
2023/07/10 03:03:52;;;;;;;;;;;;;;;17.14;100.00;102004.69;4992003;28;19925;-75
2023/07/10 03:06:17;;;;;;;;;;;;;;;17.23;100.00;102003.88;4981225;28;20310;-75
2023/07/10 03:08:43;;;;;;;;;;;;;;;17.33;100.00;102014.78;4991513;28;20822;-75
2023/07/10 03:11:09;;;;;;;;;;;;;;;17.37;100.00;102018.94;4985003;28;19932;-76
2023/07/10 03:13:34;;;;;;;;;;;;;;;17.34;100.00;102019.22;4985809;28;20013;-75
2023/07/10 03:16:00;;;;;;;;;;;;;;;17.34;100.00;102028.22;4990622;28;20357;-72
2023/07/10 03:18:26;;;;;;;;;;;;;;;17.34;100.00;102027.34;4984310;28;19971;-75
2023/07/10 03:20:51;;;;;;;;;;;;;;;17.39;100.00;102028.66;4984964;28;19925;-75
2023/07/10 03:23:16;;;;;;;;;;;;;;;17.41;100.00;102020.41;5007224;28;19982;-76
2023/07/10 03:25:41;;;;;;;;;;;;;;;17.46;100.00;102025.41;4990120;28;19929;-76
2023/07/10 03:28:07;;;;;;;;;;;;;;;17.46;100.00;102025.41;4980828;28;20227;-76
2023/07/10 03:30:34;;;;;;;;;;;;;;;17.47;100.00;102029.84;4985860;28;19994;-76
2023/07/10 03:32:59;;;;;;;;;;;;;;;17.47;100.00;102030.72;5006346;28;19926;-76
2023/07/10 03:35:24;;;;;;;;;;;;;;;17.46;100.00;102039.88;5010915;28;19925;-76
2023/07/10 03:37:50;;;;;;;;;;;;;;;17.44;100.00;102035.53;4993888;28;19976;-76
2023/07/10 03:40:15;;;;;;;;;;;;;;;17.45;100.00;102037.25;4993760;28;20051;-76
2023/07/10 03:42:40;;;;;;;;;;;;;;;17.44;100.00;102049.13;4990817;28;20374;-77
2023/07/10 03:45:05;;;;;;;;;;;;;;;17.41;100.00;102052.97;4997986;28;19921;-74
2023/07/10 03:47:31;;;;;;;;;;;;;;;17.40;100.00;102043.13;4995277;28;19929;-76
2023/07/10 03:49:56;;;;;;;;;;;;;;;17.43;100.00;102052.81;4992684;28;19925;-77
2023/07/10 03:52:21;;;;;;;;;;;;;;;17.41;100.00;102061.13;4982639;28;19979;-76
2023/07/10 03:54:46;;;;;;;;;;;;;;;17.36;100.00;102056.06;4980752;28;20012;-75
2023/07/10 03:57:11;;;;;;;;;;;;;;;17.31;100.00;102052.94;4995829;28;19925;-75
2023/07/10 03:59:37;;;;;;;;;;;;;;;17.30;100.00;102053.91;4994933;28;19929;-75
2023/07/10 04:02:02;;;;;;;;;;;;;;;17.26;100.00;102044.31;4994205;28;19962;-74
2023/07/10 04:04:27;;;;;;;;;;;;;;;17.21;100.00;102049.28;4973323;28;19952;-75
2023/07/10 04:06:52;;;;;;;;;;;;;;;17.19;100.00;102057.56;4988271;28;19994;-74
2023/07/10 04:09:17;;;;;;;;;;;;;;;17.15;100.00;102047.09;4986470;28;19971;-75
2023/07/10 04:11:43;;;;;;;;;;;;;;;17.07;100.00;102047.78;4981339;28;19929;-76
2023/07/10 04:14:08;;;;;;;;;;;;;;;17.05;100.00;102052.47;4991867;28;19929;-74
2023/07/10 04:16:33;;;;;;;;;;;;;;;16.95;100.00;102052.38;4981984;28;19948;-75
2023/07/10 04:18:58;;;;;;;;;;;;;;;16.89;100.00;102055.59;4968674;28;21190;-76
2023/07/10 04:21:25;;;;;;;;;;;;;;;16.86;100.00;102064.88;4971868;28;19926;-75
2023/07/10 04:23:50;;;;;;;;;;;;;;;16.88;100.00;102067.44;4994266;28;19921;-75
2023/07/10 04:26:17;;;;;;;;;;;;;;;16.91;100.00;102078.03;4988913;28;20162;-75
2023/07/10 04:28:43;;;;;;;;;;;;;;;16.92;100.00;102074.34;4990917;28;20309;-75
2023/07/10 04:31:08;;;;;;;;;;;;;;;16.95;100.00;102074.06;4984483;28;20356;-75
2023/07/10 04:33:34;;;;;;;;;;;;;;;16.98;100.00;102073.84;5012841;28;19948;-75
2023/07/10 04:35:59;;;;;;;;;;;;;;;16.97;100.00;102074.84;4990698;28;19941;-75
2023/07/10 04:38:25;;;;;;;;;;;;;;;17.00;100.00;102069.16;4991877;28;20060;-76
2023/07/10 04:40:53;;;;;;;;;;;;;;;17.08;100.00;102071.19;4986116;28;20129;-75
2023/07/10 04:43:18;;;;;;;;;;;;;;;17.03;100.00;102068.91;4987332;28;20409;-77
2023/07/10 04:45:43;;;;;;;;;;;;;;;17.02;100.00;102066.28;4985284;28;19925;-74
2023/07/10 04:48:08;;;;;;;;;;;;;;;17.00;100.00;102060.13;5004082;28;19926;-74
2023/07/10 04:50:34;;;;;;;;;;;;;;;16.98;100.00;102068.41;4989332;28;19956;-74
2023/07/10 04:52:59;;;;;;;;;;;;;;;17.02;100.00;102067.16;5014214;28;20025;-75
2023/07/10 04:55:24;;;;;;;;;;;;;;;17.07;100.00;102069.47;5005083;28;19943;-74
2023/07/10 04:57:49;;;;;;;;;;;;;;;17.09;100.00;102065.63;5003021;28;19921;-75
2023/07/10 05:00:15;;;;;;;;;;;;;;;17.18;100.00;102073.97;4991295;28;20409;-75
2023/07/10 05:02:40;;;;;;;;;;;;;;;17.26;100.00;102071.47;4997219;28;19987;-76
2023/07/10 05:05:05;;;;;;;;;;;;;;;17.37;100.00;102082.22;5004902;28;19968;-76
2023/07/10 05:07:30;;;;;;;;;;;;;;;17.46;100.00;102077.88;4978347;28;19922;-76
2023/07/10 05:09:56;;;;;;;;;;;;;;;17.59;100.00;102083.09;4979910;28;20445;-76
2023/07/10 05:12:21;;;;;;;;;;;;;;;17.69;100.00;102083.13;4996754;28;20436;-75
2023/07/10 05:14:46;;;;;;;;;;;;;;;17.77;100.00;102079.72;4997623;28;20006;-74
2023/07/10 05:17:11;;;;;;;;;;;;;;;17.78;100.00;102076.84;4999253;28;20023;-75
2023/07/10 05:19:36;;;;;;;;;;;;;;;17.78;100.00;102078.72;5002814;28;19926;-74
2023/07/10 05:22:02;;;;;;;;;;;;;;;17.86;100.00;102092.50;4994873;28;19929;-75
2023/07/10 05:24:27;;;;;;;;;;;;;;;17.82;100.00;102081.00;4978334;28;19936;-76
2023/07/10 05:26:52;;;;;;;;;;;;;;;17.74;100.00;102085.41;5016548;28;19966;-76
2023/07/10 05:29:17;;;;;;;;;;;;;;;17.82;100.00;102086.44;4994296;28;19944;-75
2023/07/10 05:31:43;;;;;;;;;;;;;;;17.94;100.00;102086.34;5004551;28;20348;-74
2023/07/10 05:34:08;;;;;;;;;;;;;;;18.01;100.00;102090.25;4998671;28;20466;-75
2023/07/10 05:36:33;;;;;;;;;;;;;;;18.08;100.00;102096.03;5014971;28;20321;-75
2023/07/10 05:38:58;;;;;;;;;;;;;;;18.17;100.00;102087.00;4979554;28;19937;-75
2023/07/10 05:41:24;;;;;;;;;;;;;;;18.21;100.00;102084.91;5018160;28;19983;-75
2023/07/10 05:43:49;;;;;;;;;;;;;;;18.22;100.00;102087.47;4999044;28;20000;-75
2023/07/10 05:46:14;;;;;;;;;;;;;;;18.31;100.00;102082.19;5000501;28;19959;-75
2023/07/10 05:48:39;;;;;;;;;;;;;;;18.30;100.00;102086.75;4996730;28;20300;-75
2023/07/10 05:51:05;;;;;;;;;;;;;;;18.37;100.00;102079.75;4996577;28;19925;-75
2023/07/10 05:53:30;;;;;;;;;;;;;;;18.57;100.00;102091.53;4987203;28;19925;-75
2023/07/10 05:55:56;;;;;;;;;;;;;;;18.71;100.00;102087.53;4983980;28;20367;-75
2023/07/10 05:58:22;;;;;;;;;;;;;;;18.77;100.00;102087.97;4999661;28;19930;-75
2023/07/10 06:00:48;;;;;;;;;;;;;;;18.70;100.00;102090.38;4995769;28;20403;-76
2023/07/10 06:03:13;;;;;;;;;;;;;;;18.55;100.00;102090.81;4998638;28;20012;-75
2023/07/10 06:05:39;;;;;;;;;;;;;;;18.55;100.00;102082.66;5011697;28;20563;-75
2023/07/10 06:08:04;;;;;;;;;;;;;;;18.63;100.00;102084.66;4998387;28;19929;-75
2023/07/10 06:10:29;;;;;;;;;;;;;;;18.61;100.00;102089.38;4995094;28;20027;-75
2023/07/10 06:12:55;;;;;;;;;;;;;;;18.77;100.00;102086.09;4984530;28;19925;-75
2023/07/10 06:15:20;;;;;;;;;;;;;;;18.86;100.00;102076.19;4993815;28;20429;-75
2023/07/10 06:17:45;;;;;;;;;;;;;;;18.99;100.00;102082.25;4974952;28;19944;-75
2023/07/10 06:20:11;;;;;;;;;;;;;;;18.99;100.00;102074.09;4992978;28;20441;-75
2023/07/10 06:22:36;;;;;;;;;;;;;;;19.16;100.00;102080.66;4979383;28;19929;-74
2023/07/10 06:25:01;;;;;;;;;;;;;;;19.26;100.00;102083.34;5010913;28;20551;-74
2023/07/10 06:27:26;;;;;;;;;;;;;;;19.46;100.00;102086.00;5003740;28;19926;-74
2023/07/10 06:29:51;;;;;;;;;;;;;;;19.49;100.00;102083.00;5000024;28;19955;-74
2023/07/10 06:32:17;;;;;;;;;;;;;;;19.59;100.00;102080.25;4975353;28;20027;-78
2023/07/10 06:34:42;;;;;;;;;;;;;;;19.62;100.00;102086.22;5010988;28;19925;-75
2023/07/10 06:37:08;;;;;;;;;;;;;;;19.71;100.00;102080.91;4995046;28;20331;-75
2023/07/10 06:39:33;;;;;;;;;;;;;;;19.82;100.00;102091.63;4991857;28;20342;-75
2023/07/10 06:41:58;;;;;;;;;;;;;;;19.92;100.00;102097.91;5015980;28;20458;-76
2023/07/10 06:44:23;;;;;;;;;;;;;;;19.92;100.00;102097.91;4994993;28;21773;-74
2023/07/10 06:46:48;;;;;;;;;;;;;;;19.90;100.00;102094.47;4991504;28;20372;-75
2023/07/10 06:49:14;;;;;;;;;;;;;;;19.96;100.00;102109.38;5007974;28;20390;-73
2023/07/10 06:51:39;;;;;;;;;;;;;;;20.10;100.00;102101.69;4998831;28;20087;-74
2023/07/10 06:54:04;;;;;;;;;;;;;;;20.08;100.00;102102.69;4995991;28;20050;-75
2023/07/10 06:56:32;;;;;;;;;;;;;;;20.15;100.00;102104.84;5015910;28;19925;-74
2023/07/10 06:58:58;;;;;;;;;;;;;;;20.23;100.00;102103.06;5000250;28;20244;-76
2023/07/10 07:01:24;;;;;;;;;;;;;;;20.18;100.00;102112.72;5006780;28;20198;-76
2023/07/10 07:03:49;;;;;;;;;;;;;;;20.30;100.00;102102.44;5012147;28;19927;-75
2023/07/10 07:06:15;;;;;;;;;;;;;;;20.30;100.00;102110.63;4982060;28;20343;-74
2023/07/10 07:08:41;;;;;;;;;;;;;;;20.31;100.00;102113.19;4998630;28;19957;-75
2023/07/10 07:11:06;;;;;;;;;;;;;;;20.35;100.00;102100.13;5017177;28;19917;-75
2023/07/10 07:13:31;;;;;;;;;;;;;;;20.17;100.00;102109.09;4994099;28;19924;-75
2023/07/10 07:15:57;;;;;;;;;;;;;;;20.39;100.00;102098.81;4997166;28;19925;-75
2023/07/10 07:18:23;;;;;;;;;;;;;;;20.58;100.00;102102.41;4994318;28;19960;-74
2023/07/10 07:20:48;;;;;;;;;;;;;;;20.65;100.00;102112.53;4990185;28;20311;-74
2023/07/10 07:23:13;;;;;;;;;;;;;;;20.75;100.00;102112.44;5014474;28;20043;-74
2023/07/10 07:25:39;;;;;;;;;;;;;;;20.75;100.00;102112.44;4986028;28;19925;-76
2023/07/10 07:28:04;;;;;;;;;;;;;;;20.79;100.00;102113.03;5015712;28;20113;-75
2023/07/10 07:30:30;;;;;;;;;;;;;;;20.79;100.00;102113.88;4993682;28;20458;-75
2023/07/10 07:32:59;;;;;;;;;;;;;;;20.96;100.00;102106.72;4991937;28;19929;-74
2023/07/10 07:35:24;;;;;;;;;;;;;;;21.06;100.00;102108.47;4985894;28;19926;-76
2023/07/10 07:37:50;;;;;;;;;;;;;;;21.27;100.00;102110.84;4984137;28;19925;-76
2023/07/10 07:40:18;;;;;;;;;;;;;;;21.45;100.00;102112.72;4994948;28;20159;-76
2023/07/10 07:42:43;;;;;;;;;;;;;;;21.39;100.00;102108.72;4993461;28;19924;-76
2023/07/10 07:45:09;;;;;;;;;;;;;;;21.44;100.00;102125.50;5009585;28;19925;-75
2023/07/10 07:47:34;;;;;;;;;;;;;;;21.58;100.00;102115.84;4969516;28;19972;-76
2023/07/10 07:49:59;;;;;;;;;;;;;;;21.54;100.00;102118.06;4997842;28;20461;-74
2023/07/10 07:52:24;;;;;;;;;;;;;;;21.67;100.00;102125.84;5012875;28;19943;-76
2023/07/10 07:54:51;;;;;;;;;;;;;;;21.83;100.00;102124.22;5003138;28;19932;-76
2023/07/10 07:57:16;;;;;;;;;;;;;;;21.88;100.00;102119.97;4966619;28;19952;-76
2023/07/10 07:59:41;;;;;;;;;;;;;;;21.92;100.00;102122.38;5006111;28;19929;-76
2023/07/10 08:02:07;;;;;;;;;;;;;;;21.96;100.00;102121.91;4982731;28;20059;-76
2023/07/10 08:04:33;;;;;;;;;;;;;;;21.94;100.00;102125.81;4981802;28;19932;-79
2023/07/10 08:06:58;;;;;;;;;;;;;;;22.11;100.00;102116.66;4991932;28;19933;-77
2023/07/10 08:09:23;;;;;;;;;;;;;;;22.16;100.00;102116.16;4993960;28;19964;-78
2023/07/10 08:11:48;;;;;;;;;;;;;;;22.17;100.00;102115.97;4991511;28;20020;-76
2023/07/10 08:14:14;;;;;;;;;;;;;;;22.13;100.00;102114.59;4988999;28;19929;-76
2023/07/10 08:16:39;;;;;;;;;;;;;;;22.15;100.00;102115.28;4962692;28;19983;-75
2023/07/10 08:19:04;;;;;;;;;;;;;;;22.27;100.00;102115.84;4982676;28;19956;-76
2023/07/10 08:21:30;;;;;;;;;;;;;;;22.24;100.00;102113.47;4982575;28;20011;-73
2023/07/10 08:23:55;;;;;;;;;;;;;;;22.18;100.00;102104.00;4980869;28;20253;-77
2023/07/10 08:26:20;;;;;;;;;;;;;;;22.29;100.00;102104.75;4991939;28;19987;-76
2023/07/10 08:28:45;;;;;;;;;;;;;;;22.29;100.00;102115.69;4981156;28;19960;-76
2023/07/10 08:31:10;;;;;;;;;;;;;;;22.41;100.00;102099.81;4987529;28;20031;-77
2023/07/10 08:33:36;;;;;;;;;;;;;;;22.29;100.00;102102.00;4991080;28;19927;-77
2023/07/10 08:36:02;;;;;;;;;;;;;;;22.51;100.00;102100.56;4980984;28;19935;-78
2023/07/10 08:38:28;;;;;;;;;;;;;;;22.43;100.00;102100.53;4976782;28;19967;-76
2023/07/10 08:40:58;;;;;;;;;;;;;;;22.58;100.00;102101.56;4989317;28;19925;-75
2023/07/10 08:43:23;;;;;;;;;;;;;;;22.70;100.00;102104.84;4975557;28;20390;-77
2023/07/10 08:45:48;;;;;;;;;;;;;;;22.66;99.07;102102.63;4996334;28;19929;-76
2023/07/10 08:48:13;;;;;;;;;;;;;;;22.53;100.00;102106.69;4997123;28;19964;-74
2023/07/10 08:50:39;;;;;;;;;;;;;;;22.71;100.00;102114.78;5008809;28;20047;-75
2023/07/10 08:53:16;;;;;;;;;;;;;;;22.65;88.45;102109.13;4991935;28;19963;-75
2023/07/10 08:55:44;;;;;;;;;;;;;;;22.46;93.69;102101.03;4983248;28;19925;-74
2023/07/10 08:58:23;;;;;;;;;;;;;;;22.75;94.39;102101.63;4992157;28;19983;-74
2023/07/10 09:00:49;;;;;;;;;;;;;;;23.02;98.07;102102.31;5016241;28;19925;-73
2023/07/10 09:03:30;;;;;;;;;;;;;;;23.18;93.42;102106.88;4994805;28;20294;-74
2023/07/10 09:05:55;;;;;;;;;;;;;;;23.22;86.90;102105.56;5008370;28;20268;-73
2023/07/10 09:08:20;;;;;;;;;;;;;;;23.30;95.91;102111.03;4979011;28;19931;-72
2023/07/10 09:10:50;;;;;;;;;;;;;;;23.17;94.51;102102.47;4997588;28;20044;-72
2023/07/10 09:13:16;;;;;;;;;;;;;;;23.13;85.47;102109.31;4996099;28;19932;-74
2023/07/10 09:15:49;;;;;;;;;;;;;;;23.26;85.00;102109.66;4978975;28;19926;-74
2023/07/10 09:18:22;;;;;;;;;;;;;;;23.33;83.49;102113.44;4995447;28;20383;-75
2023/07/10 09:20:49;;;;;;;;;;;;;;;23.45;87.74;102108.44;5001174;28;19921;-73
2023/07/10 09:23:20;;;;;;;;;;;;;;;23.63;93.00;102110.09;4974666;28;20540;-74
2023/07/10 09:25:45;;;;;;;;;;;;;;;23.87;88.37;102122.88;5000082;28;19925;-73
2023/07/10 09:28:10;;;;;;;;;;;;;;;23.88;97.00;102123.72;5017565;28;19931;-74
2023/07/10 09:30:54;;;;;;;;;;;;;;;23.86;86.86;102112.06;4983393;28;19925;-74
2023/07/10 09:33:20;;;;;;;;;;;;;;;23.88;81.47;102105.41;5011981;28;20036;-74
2023/07/10 09:35:45;;;;;;;;;;;;;;;23.87;82.05;102114.66;4973566;28;19931;-73
2023/07/10 09:38:13;;;;;;;;;;;;;;;23.73;79.46;102115.38;4992553;28;19925;-74
2023/07/10 09:40:43;;;;;;;;;;;;;;;23.51;82.74;102110.50;4994214;28;19928;-72
2023/07/10 09:43:16;;;;;;;;;;;;;;;23.66;85.97;102104.25;4981333;28;19925;-74
2023/07/10 09:45:45;;;;;;;;;;;;;;;24.07;81.39;102103.28;4994779;28;19917;-75
2023/07/10 09:48:34;;;;;;;;;;;;;;;24.16;75.84;102101.34;4995258;28;19926;-72
2023/07/10 09:51:05;;;;;;;;;;;;;;;24.37;81.32;102104.31;4989361;28;19925;-74
2023/07/10 09:53:32;;;;;;;;;;;;;;;24.59;78.66;102084.44;4999837;28;19944;-75
2023/07/10 09:55:57;;;;;;;;;;;;;;;24.75;72.06;102100.84;4999845;28;19932;-74
2023/07/10 09:58:22;;;;;;;;;;;;;;;24.66;71.62;102097.25;4998544;28;19925;-74
2023/07/10 10:00:48;;;;;;;;;;;;;;;24.85;75.47;102100.59;4987850;28;19976;-75
2023/07/10 10:03:18;;;;;;;;;;;;;;;25.04;71.79;102101.97;5000018;28;19955;-76
2023/07/10 10:05:43;;;;;;;;;;;;;;;25.48;65.44;102108.59;4994424;28;20549;-74
2023/07/10 10:08:16;;;;;;;;;;;;;;;25.54;61.97;102113.34;4979138;28;19932;-74
2023/07/10 10:10:41;;;;;;;;;;;;;;;25.69;63.25;102104.28;4986017;28;20331;-74
2023/07/10 10:13:23;;;;;;;;;;;;;;;25.50;64.76;102113.94;4978110;28;20000;-73
2023/07/10 10:15:54;;;;;;;;;;;;;;;25.14;64.25;102101.72;4991589;28;20016;-76
2023/07/10 10:18:42;;;;;;;;;;;;;;;25.64;65.30;102110.31;4982113;28;19925;-75
2023/07/10 10:21:08;;;;;;;;;;;;;;;25.75;65.39;102101.59;5006183;28;19936;-72
2023/07/10 10:23:35;;;;;;;;;;;;;;;25.24;65.06;102106.94;4980178;28;19929;-72
2023/07/10 10:26:20;;;;;;;;;;;;;;;25.17;70.43;102098.56;4971358;28;20408;-73
2023/07/10 10:28:52;;;;;;;;;;;;;;;25.18;67.94;102094.78;4994582;28;20020;-72
2023/07/10 10:31:18;;;;;;;;;;;;;;;25.65;68.36;102097.44;5008266;28;19928;-72
2023/07/10 10:33:53;;;;;;;;;;;;;;;25.95;60.77;102097.44;4973587;28;19944;-73
2023/07/10 10:36:32;;;;;;;;;;;;;;;26.50;63.62;102100.63;4998880;28;19932;-74
2023/07/10 10:39:09;;;;;;;;;;;;;;;26.04;62.75;102104.50;4980757;28;19983;-72
2023/07/10 10:41:39;;;;;;;;;;;;;;;25.94;63.04;102107.56;4997990;28;20025;-72
2023/07/10 10:44:27;;;;;;;;;;;;;;;26.35;61.41;102104.25;4972302;28;20002;-74
2023/07/10 10:46:55;;;;;;;;;;;;;;;26.45;57.83;102101.22;4991296;28;20671;-74
2023/07/10 10:49:36;;;;;;;;;;;;;;;26.23;58.04;102094.81;4982534;28;19917;-74
2023/07/10 10:52:24;;;;;;;;;;;;;;;26.20;60.61;102095.22;5009763;28;20007;-74
2023/07/10 10:55:08;;;;;;;;;;;;;;;26.03;62.10;102092.66;4990483;28;20489;-72
2023/07/10 10:57:33;;;;;;;;;;;;;;;26.50;58.82;102095.13;5012908;28;19931;-70
2023/07/10 10:59:58;;;;;;;;;;;;;;;26.68;63.95;102083.66;5017995;28;19917;-74
2023/07/10 11:02:29;;;;;;;;;;;;;;;26.74;56.47;102091.13;5015743;28;20367;-74
2023/07/10 11:04:58;;;;;;;;;;;;;;;26.23;56.32;102103.09;4972057;28;19929;-76
2023/07/10 11:07:23;;;;;;;;;;;;;;;25.94;61.26;102110.31;4978366;28;20485;-76
2023/07/10 11:09:49;;;;;;;;;;;;;;;25.93;58.51;102110.50;4981998;28;20024;-72
2023/07/10 11:12:22;;;;;;;;;;;;;;;26.20;56.78;102112.59;4987396;28;19932;-72
2023/07/10 11:14:47;;;;;;;;;;;;;;;26.74;59.58;102104.91;4972300;28;19921;-72
2023/07/10 11:17:12;;;;;;;;;;;;;;;27.15;55.08;102103.34;4994819;28;19947;-73
2023/07/10 11:19:37;;;;;;;;;;;;;;;26.54;57.50;102106.59;4998764;28;19931;-72
2023/07/10 11:22:29;;;;;;;;;;;;;;;26.08;54.76;102096.75;4981495;28;19983;-72
2023/07/10 11:24:54;;;;;;;;;;;;;;;26.74;56.07;102098.53;5009620;28;19925;-71
2023/07/10 11:27:26;;;;;;;;;;;;;;;27.73;58.33;102094.00;4980166;28;19929;-72
2023/07/10 11:29:56;;;;;;;;;;;;;;;28.65;49.93;102101.13;4997300;28;19931;-73
2023/07/10 11:32:21;;;;;;;;;;;;;;;28.81;51.63;102091.63;4971547;28;19933;-72
2023/07/10 11:34:47;;;;;;;;;;;;;;;28.52;49.94;102093.69;4990098;28;19933;-72
2023/07/10 11:37:30;;;;;;;;;;;;;;;27.84;51.44;102093.44;5016228;28;19925;-72
2023/07/10 11:39:56;;;;;;;;;;;;;;;28.39;56.28;102094.50;5015123;28;20284;-72
2023/07/10 11:42:21;;;;;;;;;;;;;;;29.08;57.16;102088.84;4980409;28;19948;-71
2023/07/10 11:44:52;;;;;;;;;;;;;;;29.53;51.21;102085.41;4989978;28;19952;-71
2023/07/10 11:47:35;;;;;;;;;;;;;;;28.68;48.42;102095.19;4990825;28;20016;-70
2023/07/10 11:50:00;;;;;;;;;;;;;;;27.78;48.39;102097.00;4994930;28;19925;-72
2023/07/10 11:52:27;;;;;;;;;;;;;;;27.58;47.76;102090.53;5004137;28;20277;-72
2023/07/10 11:54:52;;;;;;;;;;;;;;;27.08;50.51;102074.91;4977952;28;20454;-72
2023/07/10 11:57:19;;;;;;;;;;;;;;;26.82;50.25;102086.53;5006458;28;19928;-73
2023/07/10 11:59:46;;;;;;;;;;;;;;;26.64;50.62;102083.19;4996406;28;19932;-71
2023/07/10 12:02:30;;;;;;;;;;;;;;;27.08;51.25;102080.44;4981503;28;19925;-71
2023/07/10 12:04:57;;;;;;;;;;;;;;;27.40;48.21;102084.47;5001603;28;20056;-73
2023/07/10 12:07:22;;;;;;;;;;;;;;;27.57;49.46;102088.84;4985506;28;20118;-71
2023/07/10 12:09:51;;;;;;;;;;;;;;;27.28;52.22;102080.53;4984713;28;19921;-72
2023/07/10 12:12:16;;;;;;;;;;;;;;;26.92;50.44;102076.06;5007273;28;20026;-71
2023/07/10 12:14:42;;;;;;;;;;;;;;;27.87;51.07;102072.84;4984530;28;19925;-72
2023/07/10 12:17:10;;;;;;;;;;;;;;;28.86;50.66;102080.78;4977066;28;19984;-72
2023/07/10 12:19:36;;;;;;;;;;;;;;;28.77;47.77;102060.81;4983415;28;19926;-73
2023/07/10 12:22:02;;;;;;;;;;;;;;;29.77;42.99;102076.41;4978551;28;20457;-72
2023/07/10 12:24:27;;;;;;;;;;;;;;;30.49;44.18;102066.22;4991141;28;20021;-72
2023/07/10 12:26:53;;;;;;;;;;;;;;;30.60;46.06;102067.47;4977525;28;19925;-73
2023/07/10 12:29:18;;;;;;;;;;;;;;;32.00;41.31;102061.59;4977284;28;19929;-72